Time;durP1;ratioP1;P1;durP2;ratioP2;P2;SDS_P1;SDS_P2;PMS_P1;PMS_P2;Temp;Humidity;BMP_temperature;BMP_pressure;BME280_temperature;BME280_humidity;BME280_pressure;Samples;Min_cycle;Max_cycle;Signal;HPM_P1;HPM_P2
2021/08/27 00:02:15;;;;;;;15.95;10.15;;;;;;;;;;5057707;28;20028;-67
2021/08/27 00:04:41;;;;;;;14.27;9.68;;;;;;;;;;5057679;28;20430;-65
2021/08/27 00:07:06;;;;;;;17.00;9.98;;;;;;;;;;5061559;28;20033;-68
2021/08/27 00:09:31;;;;;;;14.68;9.55;;;;;;;;;;5057593;28;20094;-66
2021/08/27 00:11:57;;;;;;;11.75;8.73;;;;;;;;;;5056741;28;20082;-68
2021/08/27 00:14:22;;;;;;;15.73;8.50;;;;;;;;;;5056298;28;20028;-67
2021/08/27 00:16:48;;;;;;;12.70;8.68;;;;;;;;;;5052117;28;20033;-65
2021/08/27 00:19:15;;;;;;;15.38;8.10;;;;;;;;;;5054588;28;20053;-66
2021/08/27 00:21:41;;;;;;;13.20;8.20;;;;;;;;;;5056008;28;20537;-67
2021/08/27 00:24:07;;;;;;;14.00;7.90;;;;;;;;;;5055141;28;20040;-67
2021/08/27 00:26:34;;;;;;;15.10;7.32;;;;;;;;;;5056000;28;20017;-67
2021/08/27 00:28:59;;;;;;;13.60;7.55;;;;;;;;;;5055341;28;20105;-67
2021/08/27 00:31:25;;;;;;;15.98;7.47;;;;;;;;;;5055224;28;20094;-67
2021/08/27 00:33:50;;;;;;;14.77;7.45;;;;;;;;;;5058045;28;20443;-71
2021/08/27 00:36:16;;;;;;;14.52;6.55;;;;;;;;;;5055718;28;20036;-66
2021/08/27 00:38:41;;;;;;;11.13;5.70;;;;;;;;;;5056723;28;20032;-68
2021/08/27 00:41:06;;;;;;;10.82;5.80;;;;;;;;;;5056524;28;20029;-67
2021/08/27 00:43:32;;;;;;;10.88;5.53;;;;;;;;;;5056864;28;20024;-68
2021/08/27 00:45:57;;;;;;;10.55;5.32;;;;;;;;;;5056544;28;20078;-65
2021/08/27 00:48:23;;;;;;;9.82;4.90;;;;;;;;;;5056560;28;20021;-69
2021/08/27 00:50:48;;;;;;;8.90;5.13;;;;;;;;;;5057105;28;20109;-66
2021/08/27 00:53:15;;;;;;;9.77;5.00;;;;;;;;;;5054556;28;20020;-66
2021/08/27 00:55:42;;;;;;;9.50;4.55;;;;;;;;;;5054644;28;20044;-67
2021/08/27 00:58:07;;;;;;;9.05;5.05;;;;;;;;;;5055544;28;20074;-68
2021/08/27 01:00:34;;;;;;;9.55;5.15;;;;;;;;;;5057985;28;20028;-66
2021/08/27 01:03:01;;;;;;;9.50;5.45;;;;;;;;;;5055730;28;20462;-68
2021/08/27 01:05:28;;;;;;;9.60;5.05;;;;;;;;;;5056924;28;20017;-68
2021/08/27 01:07:56;;;;;;;10.40;5.13;;;;;;;;;;5056381;28;20470;-68
2021/08/27 01:10:29;;;;;;;10.27;5.18;;;;;;;;;;5057326;28;20217;-67
2021/08/27 01:13:00;;;;;;;11.38;4.78;;;;;;;;;;5054809;28;20029;-68
2021/08/27 01:15:38;;;;;;;9.68;5.25;;;;;;;;;;5053984;28;20025;-67
2021/08/27 01:18:27;;;;;;;9.88;4.53;;;;;;;;;;5056004;28;20064;-68
2021/08/27 01:21:15;;;;;;;10.80;4.22;;;;;;;;;;5053119;28;20545;-66
2021/08/27 01:23:44;;;;;;;15.05;4.63;;;;;;;;;;5056139;28;20020;-66
2021/08/27 01:26:13;;;;;;;9.60;3.55;;;;;;;;;;5054192;28;20028;-67
2021/08/27 01:28:46;;;;;;;7.55;3.60;;;;;;;;;;5055793;28;20466;-68
2021/08/27 01:31:54;;;;;;;8.77;3.45;;;;;;;;;;5056531;28;20024;-67
2021/08/27 01:34:55;;;;;;;10.13;3.08;;;;;;;;;;5051368;28;20140;-66
2021/08/27 01:37:22;;;;;;;8.20;3.03;;;;;;;;;;5039355;28;20025;-66
2021/08/27 01:39:50;;;;;;;6.57;2.72;;;;;;;;;;5071838;28;20068;-66
2021/08/27 01:42:22;;;;;;;7.28;3.05;;;;;;;;;;5056023;28;20033;-68
2021/08/27 01:44:48;;;;;;;7.03;2.88;;;;;;;;;;5056388;28;20016;-67
2021/08/27 01:47:17;;;;;;;8.88;2.83;;;;;;;;;;5055690;28;20060;-68
2021/08/27 01:49:44;;;;;;;8.70;2.97;;;;;;;;;;5055891;28;20489;-67
2021/08/27 01:52:10;;;;;;;;;;;;;;;;;;5056697;28;20031;-68
2021/08/27 01:54:37;;;;;;;9.40;2.60;;;;;;;;;;5053550;28;20312;-67
2021/08/27 01:57:04;;;;;;;7.65;2.47;;;;;;;;;;5054160;28;20043;-68
2021/08/27 01:59:33;;;;;;;8.07;2.88;;;;;;;;;;5054147;28;20032;-67
2021/08/27 02:01:59;;;;;;;8.23;2.50;;;;;;;;;;5055202;28;20028;-68
2021/08/27 02:04:25;;;;;;;9.27;2.33;;;;;;;;;;5056122;28;20044;-67
2021/08/27 02:06:51;;;;;;;6.22;2.50;;;;;;;;;;5056028;28;20104;-66
2021/08/27 02:09:17;;;;;;;7.88;2.10;;;;;;;;;;5056258;28;20033;-68
2021/08/27 02:11:43;;;;;;;6.35;2.05;;;;;;;;;;5056157;28;20033;-67
2021/08/27 02:14:09;;;;;;;8.63;2.75;;;;;;;;;;5055472;28;20479;-67
2021/08/27 02:16:35;;;;;;;5.38;2.00;;;;;;;;;;5053237;28;20123;-68
2021/08/27 02:19:00;;;;;;;13.95;2.42;;;;;;;;;;5056219;28;20081;-65
2021/08/27 02:21:29;;;;;;;11.35;2.00;;;;;;;;;;5053862;28;20318;-67
2021/08/27 02:23:56;;;;;;;4.47;1.45;;;;;;;;;;5054066;28;20032;-68
2021/08/27 02:26:22;;;;;;;6.13;1.93;;;;;;;;;;5054040;28;20506;-66
2021/08/27 02:28:49;;;;;;;7.50;1.75;;;;;;;;;;5055706;28;20082;-67
2021/08/27 02:31:16;;;;;;;6.15;1.90;;;;;;;;;;5058061;28;20029;-66
2021/08/27 02:33:46;;;;;;;7.38;1.77;;;;;;;;;;5055628;28;20044;-68
2021/08/27 02:36:15;;;;;;;6.30;1.98;;;;;;;;;;5054034;28;20036;-67
2021/08/27 02:38:43;;;;;;;6.82;1.85;;;;;;;;;;5055083;28;20016;-67
2021/08/27 02:41:08;;;;;;;9.02;2.22;;;;;;;;;;5053665;28;20021;-66
2021/08/27 02:43:34;;;;;;;7.18;2.67;;;;;;;;;;5056028;28;20523;-67
2021/08/27 02:45:59;;;;;;;8.07;2.53;;;;;;;;;;5053313;28;20400;-67
2021/08/27 02:48:24;;;;;;;8.02;3.38;;;;;;;;;;5056275;28;20032;-66
2021/08/27 02:51:00;;;;;;;11.57;4.28;;;;;;;;;;5055151;28;20016;-66
2021/08/27 02:53:34;;;;;;;11.65;4.68;;;;;;;;;;5054053;28;20016;-67
2021/08/27 02:56:06;;;;;;;9.43;3.67;;;;;;;;;;4726546;28;10000443;-67
2021/08/27 02:58:34;;;;;;;8.32;4.30;;;;;;;;;;5061433;28;20311;-66
2021/08/27 03:01:09;;;;;;;;;;;;;;;;;;5068012;28;20048;-66
2021/08/27 03:03:47;;;;;;;7.88;4.15;;;;;;;;;;5072010;28;19916;-66
2021/08/27 03:06:18;;;;;;;11.15;5.60;;;;;;;;;;5070373;28;20470;-66
2021/08/27 03:08:50;;;;;;;8.60;4.80;;;;;;;;;;5072084;28;20028;-68
2021/08/27 03:11:27;;;;;;;10.40;5.05;;;;;;;;;;5071062;28;20093;-66
2021/08/27 03:14:10;;;;;;;12.50;5.53;;;;;;;;;;5070942;28;20024;-66
2021/08/27 03:16:40;;;;;;;8.23;4.40;;;;;;;;;;5069942;28;20389;-65
2021/08/27 03:19:22;;;;;;;12.32;4.82;;;;;;;;;;5071372;28;20119;-66
2021/08/27 03:22:10;;;;;;;13.15;4.32;;;;;;;;;;5069902;28;20042;-67
2021/08/27 03:24:39;;;;;;;7.50;4.13;;;;;;;;;;5067941;28;20475;-65
2021/08/27 03:27:10;;;;;;;7.50;3.92;;;;;;;;;;5068871;28;20099;-69
2021/08/27 03:29:39;;;;;;;7.50;4.53;;;;;;;;;;5069125;28;20032;-67
2021/08/27 03:32:06;;;;;;;9.15;5.20;;;;;;;;;;5068093;28;20472;-67
2021/08/27 03:34:34;;;;;;;9.55;4.97;;;;;;;;;;5068743;28;20041;-67
2021/08/27 03:37:00;;;;;;;14.82;5.82;;;;;;;;;;5068622;28;20033;-67
2021/08/27 03:39:27;;;;;;;13.93;6.10;;;;;;;;;;5069132;28;20021;-67
2021/08/27 03:41:53;;;;;;;12.85;8.23;;;;;;;;;;5069842;28;20070;-67
2021/08/27 03:44:19;;;;;;;14.70;8.25;;;;;;;;;;5071768;28;20384;-66
2021/08/27 03:46:45;;;;;;;17.00;11.10;;;;;;;;;;5074045;28;20028;-64
2021/08/27 03:49:12;;;;;;;19.63;11.23;;;;;;;;;;5073611;28;20462;-69
2021/08/27 03:51:39;;;;;;;20.92;12.10;;;;;;;;;;5072617;28;20082;-68
2021/08/27 03:54:04;;;;;;;15.93;11.43;;;;;;;;;;5072180;28;20033;-66
2021/08/27 03:56:30;;;;;;;17.63;11.32;;;;;;;;;;5071840;28;20066;-66
2021/08/27 03:58:56;;;;;;;16.85;10.27;;;;;;;;;;5075550;28;20512;-66
2021/08/27 04:01:22;;;;;;;20.35;10.77;;;;;;;;;;5072400;28;20090;-67
2021/08/27 04:03:50;;;;;;;15.60;9.40;;;;;;;;;;5073093;28;20032;-66
2021/08/27 04:06:16;;;;;;;16.77;9.60;;;;;;;;;;5072554;28;20024;-67
2021/08/27 04:08:43;;;;;;;11.77;8.15;;;;;;;;;;5075094;28;20473;-67
2021/08/27 04:11:12;;;;;;;13.60;9.07;;;;;;;;;;5073691;28;20470;-66
2021/08/27 04:13:38;;;;;;;16.05;8.93;;;;;;;;;;5072721;28;20032;-67
2021/08/27 04:16:04;;;;;;;13.70;9.23;;;;;;;;;;5072895;28;20475;-66
2021/08/27 04:18:30;;;;;;;15.75;9.00;;;;;;;;;;5072819;28;20382;-67
2021/08/27 04:20:55;;;;;;;17.48;9.75;;;;;;;;;;5072375;28;20033;-66
2021/08/27 04:23:21;;;;;;;18.90;9.80;;;;;;;;;;5073676;28;20024;-67
2021/08/27 04:25:47;;;;;;;19.40;10.40;;;;;;;;;;5072012;28;20032;-67
2021/08/27 04:28:12;;;;;;;21.57;10.30;;;;;;;;;;5073306;28;20016;-65
2021/08/27 04:30:38;;;;;;;17.98;10.48;;;;;;;;;;5073039;28;20519;-67
2021/08/27 04:33:03;;;;;;;18.23;11.13;;;;;;;;;;5071720;28;20025;-67
2021/08/27 04:35:30;;;;;;;14.03;10.33;;;;;;;;;;5072824;28;20044;-67
2021/08/27 04:37:55;;;;;;;20.60;10.88;;;;;;;;;;5071427;28;20553;-67
2021/08/27 04:40:22;;;;;;;18.75;11.73;;;;;;;;;;5070373;28;20028;-65
2021/08/27 04:42:48;;;;;;;19.65;12.40;;;;;;;;;;5072670;28;20401;-66
2021/08/27 04:45:13;;;;;;;18.65;12.32;;;;;;;;;;5072221;28;20025;-67
2021/08/27 04:47:39;;;;;;;19.55;13.02;;;;;;;;;;5073047;28;20085;-66
2021/08/27 04:50:06;;;;;;;19.70;12.60;;;;;;;;;;5072683;28;20501;-67
2021/08/27 04:52:31;;;;;;;20.77;12.70;;;;;;;;;;5071584;28;20024;-67
2021/08/27 04:54:56;;;;;;;18.35;12.48;;;;;;;;;;5072462;28;20031;-69
2021/08/27 04:57:24;;;;;;;21.70;13.52;;;;;;;;;;4437604;28;10001942;-67
2021/08/27 04:59:51;;;;;;;21.67;14.20;;;;;;;;;;4706512;28;10000009;-68
2021/08/27 05:02:16;;;;;;;20.33;14.30;;;;;;;;;;5049649;28;20517;-68
2021/08/27 05:04:42;;;;;;;25.13;15.30;;;;;;;;;;5047978;28;20346;-67
2021/08/27 05:07:07;;;;;;;26.95;14.48;;;;;;;;;;5071399;28;20469;-69
2021/08/27 05:09:33;;;;;;;21.85;14.88;;;;;;;;;;5074496;28;20020;-69
2021/08/27 05:11:58;;;;;;;21.27;15.25;;;;;;;;;;5072432;28;20039;-69
2021/08/27 05:14:23;;;;;;;23.98;15.63;;;;;;;;;;5071533;28;20025;-67
2021/08/27 05:16:49;;;;;;;20.10;15.68;;;;;;;;;;5075069;28;20132;-66
2021/08/27 05:19:15;;;;;;;25.25;16.02;;;;;;;;;;5072197;28;20134;-70
2021/08/27 05:21:40;;;;;;;23.20;15.60;;;;;;;;;;5070988;28;20020;-65
2021/08/27 05:24:06;;;;;;;24.10;15.40;;;;;;;;;;5072430;28;20035;-65
2021/08/27 05:26:32;;;;;;;25.33;14.48;;;;;;;;;;5071284;28;20020;-68
2021/08/27 05:28:58;;;;;;;18.30;13.98;;;;;;;;;;5073699;28;20031;-69
2021/08/27 05:31:23;;;;;;;22.25;15.23;;;;;;;;;;5071806;28;20029;-69
2021/08/27 05:33:48;;;;;;;21.52;14.73;;;;;;;;;;5070763;28;20115;-67
2021/08/27 05:36:14;;;;;;;21.20;15.60;;;;;;;;;;5071608;28;20044;-68
2021/08/27 05:38:39;;;;;;;23.48;16.13;;;;;;;;;;5069688;28;20021;-66
2021/08/27 05:41:05;;;;;;;19.55;15.43;;;;;;;;;;5070982;28;20043;-65
2021/08/27 05:43:33;;;;;;;24.63;16.85;;;;;;;;;;5069238;28;20035;-68
2021/08/27 05:45:58;;;;;;;22.70;16.42;;;;;;;;;;5070788;28;20059;-70
2021/08/27 05:48:24;;;;;;;26.55;16.90;;;;;;;;;;5070517;28;20064;-67
2021/08/27 05:50:49;;;;;;;20.60;15.73;;;;;;;;;;5070616;28;20024;-68
2021/08/27 05:53:15;;;;;;;19.88;15.70;;;;;;;;;;5072288;28;20611;-69
2021/08/27 05:55:41;;;;;;;25.58;17.23;;;;;;;;;;5071436;28;20021;-67
2021/08/27 05:58:06;;;;;;;24.08;16.27;;;;;;;;;;5069550;28;20093;-68
2021/08/27 06:00:32;;;;;;;21.33;16.10;;;;;;;;;;5073917;28;20034;-72
2021/08/27 06:02:57;;;;;;;21.25;16.02;;;;;;;;;;5090806;28;20112;-66
2021/08/27 06:05:23;;;;;;;23.50;16.25;;;;;;;;;;5073224;28;20507;-69
2021/08/27 06:07:48;;;;;;;20.80;16.25;;;;;;;;;;5090587;28;20077;-69
2021/08/27 06:10:14;;;;;;;24.80;17.33;;;;;;;;;;5075102;28;20478;-67
2021/08/27 06:12:40;;;;;;;27.63;17.63;;;;;;;;;;5069212;28;20378;-70
2021/08/27 06:15:06;;;;;;;23.83;16.50;;;;;;;;;;5071156;28;20104;-69
2021/08/27 06:17:32;;;;;;;24.85;16.90;;;;;;;;;;5072792;28;20489;-69
2021/08/27 06:19:57;;;;;;;24.05;16.40;;;;;;;;;;5070939;28;20070;-66
2021/08/27 06:22:23;;;;;;;24.67;16.50;;;;;;;;;;5069480;28;20071;-68
2021/08/27 06:24:49;;;;;;;24.67;17.02;;;;;;;;;;5070715;28;20090;-67
2021/08/27 06:27:15;;;;;;;28.85;19.13;;;;;;;;;;5073395;28;20020;-68
2021/08/27 06:29:40;;;;;;;26.02;19.25;;;;;;;;;;5070366;28;20051;-70
2021/08/27 06:32:06;;;;;;;25.00;19.02;;;;;;;;;;5069536;28;20024;-68
2021/08/27 06:34:31;;;;;;;30.48;20.05;;;;;;;;;;5070325;28;20041;-71
2021/08/27 06:36:56;;;;;;;27.88;19.40;;;;;;;;;;5069367;28;20020;-70
2021/08/27 06:39:22;;;;;;;25.95;19.50;;;;;;;;;;5071117;28;20382;-71
2021/08/27 06:41:48;;;;;;;25.58;19.23;;;;;;;;;;5070049;28;20028;-66
2021/08/27 06:44:14;;;;;;;29.50;19.75;;;;;;;;;;5068720;28;20058;-69
2021/08/27 06:46:39;;;;;;;26.25;19.33;;;;;;;;;;5068567;28;20016;-70
2021/08/27 06:49:05;;;;;;;23.55;18.67;;;;;;;;;;5062831;28;20033;-67
2021/08/27 06:51:30;;;;;;;25.80;18.20;;;;;;;;;;5070863;28;20048;-66
2021/08/27 06:53:55;;;;;;;27.55;19.05;;;;;;;;;;5069817;28;20104;-67
2021/08/27 06:56:21;;;;;;;26.25;18.55;;;;;;;;;;5068523;28;20354;-68
2021/08/27 06:58:47;;;;;;;27.90;19.02;;;;;;;;;;5051729;28;20033;-66
2021/08/27 07:01:12;;;;;;;27.10;19.30;;;;;;;;;;5064656;28;20106;-68
2021/08/27 07:03:38;;;;;;;32.92;20.00;;;;;;;;;;5070515;28;20032;-68
2021/08/27 07:06:03;;;;;;;26.13;19.38;;;;;;;;;;5079133;28;20415;-68
2021/08/27 07:08:28;;;;;;;25.33;19.45;;;;;;;;;;5089299;28;20024;-68
2021/08/27 07:10:54;;;;;;;28.40;20.27;;;;;;;;;;5089035;28;20059;-69
2021/08/27 07:13:19;;;;;;;24.25;19.13;;;;;;;;;;5089397;28;20024;-69
2021/08/27 07:15:45;;;;;;;25.00;18.35;;;;;;;;;;5086663;28;20036;-70
2021/08/27 07:18:10;;;;;;;26.63;18.35;;;;;;;;;;5073063;28;20116;-68
2021/08/27 07:20:37;;;;;;;28.73;19.02;;;;;;;;;;5073587;28;20028;-68
2021/08/27 07:23:02;;;;;;;28.95;19.70;;;;;;;;;;5075023;28;20111;-67
2021/08/27 07:25:28;;;;;;;33.63;21.65;;;;;;;;;;5078158;28;20457;-70
2021/08/27 07:27:53;;;;;;;27.45;21.23;;;;;;;;;;5074741;28;20029;-69
2021/08/27 07:30:18;;;;;;;28.38;19.70;;;;;;;;;;5071751;28;20039;-69
2021/08/27 07:32:44;;;;;;;27.38;19.17;;;;;;;;;;5072141;28;20032;-67
2021/08/27 07:35:10;;;;;;;27.52;18.90;;;;;;;;;;5078535;28;20085;-69
2021/08/27 07:37:42;;;;;;;29.05;19.25;;;;;;;;;;5067431;28;20170;-69
2021/08/27 07:40:14;;;;;;;22.05;17.42;;;;;;;;;;5061385;28;20032;-66
2021/08/27 07:42:40;;;;;;;25.60;15.90;;;;;;;;;;5070363;28;20037;-69
2021/08/27 07:45:06;;;;;;;26.85;17.42;;;;;;;;;;5067000;28;20025;-69
2021/08/27 07:47:31;;;;;;;22.33;15.57;;;;;;;;;;5062154;28;20393;-65
2021/08/27 07:49:57;;;;;;;29.65;17.60;;;;;;;;;;5074544;28;20028;-67
2021/08/27 07:52:22;;;;;;;23.13;15.30;;;;;;;;;;5074007;28;20031;-67
2021/08/27 07:54:47;;;;;;;20.27;14.38;;;;;;;;;;5073337;28;20024;-66
2021/08/27 07:57:15;;;;;;;19.42;14.35;;;;;;;;;;5075897;28;20025;-69
2021/08/27 07:59:41;;;;;;;23.67;15.43;;;;;;;;;;5052074;28;20025;-68
2021/08/27 08:02:08;;;;;;;19.25;14.63;;;;;;;;;;5068406;28;20035;-68
2021/08/27 08:04:33;;;;;;;19.13;12.95;;;;;;;;;;5073907;28;20020;-69
2021/08/27 08:06:58;;;;;;;18.20;11.07;;;;;;;;;;5073425;28;20035;-66
2021/08/27 08:09:26;;;;;;;15.85;10.32;;;;;;;;;;5072985;28;20032;-68
2021/08/27 08:11:51;;;;;;;15.25;10.10;;;;;;;;;;5072380;28;20020;-67
2021/08/27 08:14:17;;;;;;;13.80;10.20;;;;;;;;;;5072365;28;20032;-69
2021/08/27 08:16:42;;;;;;;14.93;9.30;;;;;;;;;;5071884;28;20029;-70
2021/08/27 08:19:10;;;;;;;17.63;9.88;;;;;;;;;;5086445;28;20043;-69
2021/08/27 08:21:36;;;;;;;13.63;9.57;;;;;;;;;;5076556;28;20473;-69
2021/08/27 08:24:01;;;;;;;12.18;9.38;;;;;;;;;;5072654;28;20036;-67
2021/08/27 08:26:27;;;;;;;15.23;9.35;;;;;;;;;;5071396;28;20021;-66
2021/08/27 08:28:54;;;;;;;12.80;9.95;;;;;;;;;;5067300;28;20090;-66
2021/08/27 08:31:20;;;;;;;15.45;10.05;;;;;;;;;;5071588;28;20031;-71
2021/08/27 08:33:50;;;;;;;16.27;11.40;;;;;;;;;;5071995;28;20045;-69
2021/08/27 08:36:16;;;;;;;19.00;12.52;;;;;;;;;;5071946;28;20111;-69
2021/08/27 08:38:42;;;;;;;15.80;13.25;;;;;;;;;;5070306;28;20476;-71
2021/08/27 08:41:08;;;;;;;17.00;13.40;;;;;;;;;;5070577;28;20540;-68
2021/08/27 08:43:33;;;;;;;21.80;13.52;;;;;;;;;;5071676;28;20741;-69
2021/08/27 08:45:59;;;;;;;20.40;14.32;;;;;;;;;;5071136;28;20048;-69
2021/08/27 08:48:26;;;;;;;18.45;13.88;;;;;;;;;;5071788;28;20112;-69
2021/08/27 08:50:53;;;;;;;20.67;13.35;;;;;;;;;;5072474;28;20509;-67
2021/08/27 08:53:23;;;;;;;18.08;13.70;;;;;;;;;;5073356;28;20032;-68
2021/08/27 08:55:50;;;;;;;19.85;13.82;;;;;;;;;;5072328;28;20035;-68
2021/08/27 08:58:15;;;;;;;;;;;;;;;;;;5073262;28;20835;-69
2021/08/27 09:00:41;;;;;;;16.77;13.25;;;;;;;;;;5072638;28;19908;-67
2021/08/27 09:03:06;;;;;;;17.02;14.23;;;;;;;;;;5070939;28;20709;-66
2021/08/27 09:05:32;;;;;;;18.85;14.52;;;;;;;;;;5070956;28;20017;-66
2021/08/27 09:07:57;;;;;;;21.60;14.40;;;;;;;;;;5073217;28;20161;-68
2021/08/27 09:10:23;;;;;;;17.08;14.32;;;;;;;;;;5072216;28;20039;-68
2021/08/27 09:12:51;;;;;;;19.17;15.00;;;;;;;;;;4704982;28;10000149;-65
2021/08/27 09:15:17;;;;;;;;;;;;;;;;;;5056366;28;20112;-68
2021/08/27 09:17:43;;;;;;;22.15;16.23;;;;;;;;;;5057632;28;19913;-69
2021/08/27 09:20:11;;;;;;;17.52;14.52;;;;;;;;;;5058992;28;20028;-68
2021/08/27 09:22:56;;;;;;;19.88;15.32;;;;;;;;;;5057380;28;20770;-70
2021/08/27 09:25:26;;;;;;;17.55;15.25;;;;;;;;;;5071846;28;20347;-66
2021/08/27 09:28:21;;;;;;;16.90;13.80;;;;;;;;;;5055996;28;20492;-69
2021/08/27 09:30:46;;;;;;;16.25;13.38;;;;;;;;;;5056583;28;20028;-68
2021/08/27 09:33:21;;;;;;;16.05;13.95;;;;;;;;;;5059613;28;20093;-69
2021/08/27 09:35:57;;;;;;;15.23;12.18;;;;;;;;;;5055451;28;20480;-70
2021/08/27 09:38:25;;;;;;;15.38;13.57;;;;;;;;;;5055055;28;20470;-69
2021/08/27 09:40:59;;;;;;;17.00;12.40;;;;;;;;;;5057414;28;20028;-69
2021/08/27 09:43:25;;;;;;;17.95;13.35;;;;;;;;;;5055786;28;20489;-69
2021/08/27 09:45:51;;;;;;;15.80;12.07;;;;;;;;;;5055966;28;20021;-70
2021/08/27 09:48:17;;;;;;;12.70;11.23;;;;;;;;;;5057700;28;20500;-66
2021/08/27 09:50:44;;;;;;;13.45;10.68;;;;;;;;;;5054380;28;20043;-70
2021/08/27 09:53:12;;;;;;;12.07;10.73;;;;;;;;;;5056951;28;20021;-69
2021/08/27 09:55:51;;;;;;;10.90;9.90;;;;;;;;;;5054398;28;20061;-72
2021/08/27 09:58:17;;;;;;;10.68;9.18;;;;;;;;;;5054384;28;20486;-70
2021/08/27 10:00:44;;;;;;;9.98;7.40;;;;;;;;;;5055199;28;20043;-66
2021/08/27 10:03:25;;;;;;;10.48;8.35;;;;;;;;;;5056061;28;20511;-69
2021/08/27 10:05:54;;;;;;;11.35;7.93;;;;;;;;;;5053726;28;20017;-69
2021/08/27 10:08:20;;;;;;;10.52;8.02;;;;;;;;;;5056810;28;20029;-69
2021/08/27 10:10:49;;;;;;;9.50;7.47;;;;;;;;;;5056542;28;20043;-68
2021/08/27 10:13:14;;;;;;;10.30;6.93;;;;;;;;;;5054701;28;20474;-67
2021/08/27 10:15:41;;;;;;;10.77;6.03;;;;;;;;;;5054896;28;20032;-66
2021/08/27 10:18:09;;;;;;;9.43;6.38;;;;;;;;;;5055595;28;20053;-70
2021/08/27 10:20:40;;;;;;;8.30;6.00;;;;;;;;;;5056157;28;20024;-69
2021/08/27 10:23:07;;;;;;;10.82;4.95;;;;;;;;;;5056714;28;20055;-69
2021/08/27 10:25:33;;;;;;;7.47;4.35;;;;;;;;;;5055510;28;20021;-66
2021/08/27 10:27:59;;;;;;;5.43;3.53;;;;;;;;;;5056648;28;20036;-70
2021/08/27 10:30:50;;;;;;;6.50;3.75;;;;;;;;;;5053539;28;20632;-69
2021/08/27 10:33:16;;;;;;;7.45;3.55;;;;;;;;;;5056120;28;20045;-70
2021/08/27 10:35:52;;;;;;;4.65;3.85;;;;;;;;;;5052300;28;20109;-67
2021/08/27 10:38:40;;;;;;;6.15;4.30;;;;;;;;;;5053558;28;20025;-68
2021/08/27 10:41:13;;;;;;;6.72;5.20;;;;;;;;;;5055027;28;20091;-65
2021/08/27 10:43:53;;;;;;;8.20;5.82;;;;;;;;;;5055795;28;20099;-68
2021/08/27 10:46:19;;;;;;;6.93;5.95;;;;;;;;;;5051443;28;20252;-70
2021/08/27 10:48:53;;;;;;;8.25;6.20;;;;;;;;;;5054498;28;20029;-66
2021/08/27 10:51:34;;;;;;;8.00;5.90;;;;;;;;;;5050903;28;20029;-70
2021/08/27 10:53:59;;;;;;;7.82;5.90;;;;;;;;;;5057636;28;20527;-69
2021/08/27 10:56:49;;;;;;;9.10;6.88;;;;;;;;;;5059373;28;20116;-67
2021/08/27 10:59:16;;;;;;;7.28;6.13;;;;;;;;;;5058525;28;20031;-69
2021/08/27 11:01:43;;;;;;;8.38;5.82;;;;;;;;;;5056395;28;20102;-68
2021/08/27 11:04:30;;;;;;;7.68;6.60;;;;;;;;;;5057253;28;20032;-67
2021/08/27 11:07:13;;;;;;;7.05;6.30;;;;;;;;;;5066643;28;20120;-70
2021/08/27 11:09:38;;;;;;;8.43;6.30;;;;;;;;;;5057986;28;20401;-67
2021/08/27 11:12:14;;;;;;;8.13;6.05;;;;;;;;;;5056429;28;20056;-69
2021/08/27 11:14:46;;;;;;;7.07;5.85;;;;;;;;;;5057773;28;20067;-67
2021/08/27 11:17:13;;;;;;;8.27;5.80;;;;;;;;;;5058470;28;20020;-67
2021/08/27 11:19:48;;;;;;;7.07;5.65;;;;;;;;;;5063748;28;20064;-68
2021/08/27 11:22:22;;;;;;;6.65;5.63;;;;;;;;;;5059417;28;20028;-70
2021/08/27 11:25:09;;;;;;;5.82;5.25;;;;;;;;;;5058901;28;20473;-70
2021/08/27 11:27:36;;;;;;;8.13;5.95;;;;;;;;;;5058807;28;20078;-70
2021/08/27 11:30:34;;;;;;;9.18;6.05;;;;;;;;;;5058725;28;20024;-68
2021/08/27 11:33:01;;;;;;;8.57;6.40;;;;;;;;;;5013531;28;20040;-67
2021/08/27 11:35:30;;;;;;;6.65;5.60;;;;;;;;;;5060257;28;20333;-66
2021/08/27 11:38:05;;;;;;;8.63;5.47;;;;;;;;;;5063119;28;20697;-67
2021/08/27 11:40:31;;;;;;;6.07;5.45;;;;;;;;;;5055697;28;20155;-71
2021/08/27 11:42:57;;;;;;;6.72;4.82;;;;;;;;;;5057983;28;20491;-67
2021/08/27 11:45:26;;;;;;;6.20;5.60;;;;;;;;;;5056685;28;20021;-66
2021/08/27 11:47:58;;;;;;;5.93;4.95;;;;;;;;;;5058358;28;20033;-69
2021/08/27 11:50:49;;;;;;;5.75;4.65;;;;;;;;;;5057704;28;20805;-69
2021/08/27 11:53:14;;;;;;;5.25;2.80;;;;;;;;;;5056498;28;20428;-67
2021/08/27 11:55:44;;;;;;;4.28;2.10;;;;;;;;;;5056398;28;20016;-69
2021/08/27 11:58:10;;;;;;;3.95;2.08;;;;;;;;;;5058711;28;20040;-68
2021/08/27 12:00:40;;;;;;;3.00;2.20;;;;;;;;;;5054851;28;20025;-68
2021/08/27 12:03:06;;;;;;;5.50;2.78;;;;;;;;;;5057357;28;20070;-67
2021/08/27 12:05:33;;;;;;;4.47;3.47;;;;;;;;;;5054199;28;20449;-67
2021/08/27 12:08:01;;;;;;;5.53;3.78;;;;;;;;;;5059477;28;20779;-71
2021/08/27 12:10:30;;;;;;;7.30;3.80;;;;;;;;;;5056773;28;20223;-70
2021/08/27 12:12:56;;;;;;;5.97;4.07;;;;;;;;;;5056890;28;20528;-70
2021/08/27 12:15:25;;;;;;;6.93;3.90;;;;;;;;;;5057208;28;20025;-70
2021/08/27 12:17:56;;;;;;;6.13;3.53;;;;;;;;;;5057727;28;20020;-68
2021/08/27 12:20:24;;;;;;;8.98;3.25;;;;;;;;;;5057955;28;20024;-67
2021/08/27 12:22:54;;;;;;;8.23;3.38;;;;;;;;;;5058445;28;20752;-71
2021/08/27 12:25:27;;;;;;;5.57;3.00;;;;;;;;;;5056709;28;20032;-68
2021/08/27 12:27:54;;;;;;;3.55;2.45;;;;;;;;;;5057782;28;20108;-69
2021/08/27 12:30:20;;;;;;;;;;;;;;;;;;5056677;28;20178;-69
2021/08/27 12:32:46;;;;;;;4.70;2.73;;;;;;;;;;5056754;28;19999;-69
2021/08/27 12:35:19;;;;;;;7.55;3.15;;;;;;;;;;5054072;28;20071;-69
2021/08/27 12:37:49;;;;;;;7.03;3.20;;;;;;;;;;5056105;28;20028;-67
2021/08/27 12:40:19;;;;;;;4.10;2.60;;;;;;;;;;5057452;28;20036;-68
2021/08/27 12:43:02;;;;;;;5.90;2.83;;;;;;;;;;5056344;28;20020;-70
2021/08/27 12:45:38;;;;;;;6.00;2.95;;;;;;;;;;5055575;28;20013;-67
2021/08/27 12:48:05;;;;;;;7.55;4.05;;;;;;;;;;5057026;28;20107;-67
2021/08/27 12:50:30;;;;;;;5.93;3.15;;;;;;;;;;5056278;28;20052;-70
2021/08/27 12:52:59;;;;;;;12.18;3.30;;;;;;;;;;5058000;28;20075;-69
2021/08/27 12:55:28;;;;;;;4.30;2.55;;;;;;;;;;5070698;28;20086;-67
2021/08/27 12:57:54;;;;;;;5.88;2.50;;;;;;;;;;5056380;28;20099;-68
2021/08/27 13:00:25;;;;;;;6.13;2.60;;;;;;;;;;5056424;28;20573;-69
2021/08/27 13:02:51;;;;;;;6.10;2.50;;;;;;;;;;5057017;28;20047;-66
2021/08/27 13:05:52;;;;;;;6.53;2.42;;;;;;;;;;5056168;28;20017;-70
2021/08/27 13:08:20;;;;;;;7.28;2.45;;;;;;;;;;4973799;28;20125;-70
2021/08/27 13:11:01;;;;;;;8.25;2.80;;;;;;;;;;5038538;28;20046;-67
2021/08/27 13:13:28;;;;;;;7.40;3.40;;;;;;;;;;5059784;28;20025;-70
2021/08/27 13:16:14;;;;;;;5.35;3.53;;;;;;;;;;5057579;28;20474;-70
2021/08/27 13:18:45;;;;;;;8.63;3.70;;;;;;;;;;5056899;28;20486;-67
2021/08/27 13:21:14;;;;;;;7.78;3.35;;;;;;;;;;5055998;28;20041;-70
2021/08/27 13:23:40;;;;;;;6.00;3.33;;;;;;;;;;5056525;28;20028;-71
2021/08/27 13:26:08;;;;;;;6.70;3.65;;;;;;;;;;5055509;28;20025;-69
2021/08/27 13:28:35;;;;;;;8.75;3.28;;;;;;;;;;5057831;28;20032;-68
2021/08/27 13:31:01;;;;;;;11.25;3.92;;;;;;;;;;5055777;28;20021;-69
2021/08/27 13:33:26;;;;;;;6.78;3.30;;;;;;;;;;5055382;28;20434;-66
2021/08/27 13:35:52;;;;;;;6.88;3.42;;;;;;;;;;5052986;28;20033;-69
2021/08/27 13:38:17;;;;;;;5.18;2.90;;;;;;;;;;5056266;28;20107;-68
2021/08/27 13:40:43;;;;;;;5.55;2.60;;;;;;;;;;5055449;28;20778;-69
2021/08/27 13:43:08;;;;;;;7.43;2.85;;;;;;;;;;5061535;28;20077;-66
2021/08/27 13:45:34;;;;;;;9.07;2.97;;;;;;;;;;5056912;28;20024;-67
2021/08/27 13:47:59;;;;;;;6.95;2.80;;;;;;;;;;5054983;28;20020;-69
2021/08/27 13:50:25;;;;;;;7.03;2.70;;;;;;;;;;5054766;28;20128;-66
2021/08/27 13:52:50;;;;;;;6.22;2.50;;;;;;;;;;5056487;28;20074;-66
2021/08/27 13:55:22;;;;;;;7.22;2.20;;;;;;;;;;5055588;28;20028;-69
2021/08/27 13:57:47;;;;;;;9.80;2.00;;;;;;;;;;5055366;28;20028;-67
2021/08/27 14:00:15;;;;;;;4.95;2.03;;;;;;;;;;5053742;28;20040;-68
2021/08/27 14:02:41;;;;;;;4.63;2.10;;;;;;;;;;5055578;28;20103;-69
2021/08/27 14:05:09;;;;;;;7.43;2.20;;;;;;;;;;5053577;28;20767;-71
2021/08/27 14:07:35;;;;;;;5.65;1.67;;;;;;;;;;5053276;28;20031;-70
2021/08/27 14:10:01;;;;;;;6.22;1.70;;;;;;;;;;5055418;28;20131;-66
2021/08/27 14:12:27;;;;;;;5.03;1.63;;;;;;;;;;5053961;28;20746;-69
2021/08/27 14:14:52;;;;;;;5.45;1.70;;;;;;;;;;5052978;28;20117;-70
2021/08/27 14:17:17;;;;;;;5.22;1.90;;;;;;;;;;5058538;28;20037;-69
2021/08/27 14:19:43;;;;;;;3.15;1.50;;;;;;;;;;5054689;28;20456;-67
2021/08/27 14:22:11;;;;;;;4.95;1.70;;;;;;;;;;5053061;28;20478;-67
2021/08/27 14:24:36;;;;;;;4.93;1.50;;;;;;;;;;5053802;28;20127;-72
2021/08/27 14:27:02;;;;;;;4.03;1.35;;;;;;;;;;5051133;28;20373;-69
2021/08/27 14:29:27;;;;;;;4.65;1.02;;;;;;;;;;5055258;28;20147;-69
2021/08/27 14:31:55;;;;;;;3.35;1.02;;;;;;;;;;5057012;28;20031;-68
2021/08/27 14:34:20;;;;;;;3.00;1.10;;;;;;;;;;5054637;28;20433;-70
2021/08/27 14:36:48;;;;;;;3.60;1.13;;;;;;;;;;5055972;28;20035;-68
2021/08/27 14:39:13;;;;;;;4.13;1.50;;;;;;;;;;5054454;28;20024;-70